Time;durP1;ratioP1;P1;durP2;ratioP2;P2;SDS_P1;SDS_P2;PMS_P1;PMS_P2;Temp;Humidity;BMP_temperature;BMP_pressure;BME280_temperature;BME280_humidity;BME280_pressure;Samples;Min_cycle;Max_cycle;Signal;HPM_P1;HPM_P2
2023/06/07 00:01:58;;;;;;;15.52;4.93;;;21.80;54.00;;;;;;5050806;28;20108;-48
2023/06/07 00:04:24;;;;;;;10.43;5.05;;;21.80;54.20;;;;;;5049907;28;20040;-51
2023/06/07 00:06:56;;;;;;;18.23;5.10;;;21.80;54.00;;;;;;5049705;28;20029;-50
2023/06/07 00:09:22;;;;;;;11.18;4.50;;;21.80;53.90;;;;;;5050585;28;20407;-52
2023/06/07 00:11:48;;;;;;;11.00;4.30;;;21.80;54.00;;;;;;5050629;28;20021;-52
2023/06/07 00:14:14;;;;;;;11.20;4.47;;;21.80;54.20;;;;;;5050811;28;20094;-52
2023/06/07 00:16:40;;;;;;;11.85;4.47;;;21.80;54.00;;;;;;5050380;28;20032;-51
2023/06/07 00:19:06;;;;;;;15.23;5.10;;;21.80;54.00;;;;;;5029632;28;20453;-51
2023/06/07 00:21:32;;;;;;;12.38;4.70;;;21.80;54.00;;;;;;5049327;28;20025;-52
2023/06/07 00:23:58;;;;;;;12.90;4.63;;;21.80;54.10;;;;;;5050012;28;20085;-52
2023/06/07 00:26:24;;;;;;;9.43;4.35;;;21.80;54.10;;;;;;5050335;28;20453;-53
2023/06/07 00:28:51;;;;;;;17.50;4.30;;;21.80;54.10;;;;;;5050488;28;20029;-50
2023/06/07 00:31:17;;;;;;;10.18;3.75;;;21.70;54.00;;;;;;5027327;28;20477;-49
2023/06/07 00:33:43;;;;;;;14.43;4.20;;;21.70;54.00;;;;;;5053419;28;20043;-50
2023/06/07 00:36:09;;;;;;;11.63;3.97;;;21.70;54.10;;;;;;5053902;28;20100;-53
2023/06/07 00:38:35;;;;;;;11.98;4.22;;;21.70;54.00;;;;;;5031724;28;20035;-50
2023/06/07 00:41:01;;;;;;;13.38;4.32;;;21.70;54.10;;;;;;5048592;28;20399;-50
2023/06/07 00:43:27;;;;;;;8.50;4.03;;;21.80;54.00;;;;;;5035040;28;20036;-53
2023/06/07 00:45:53;;;;;;;15.90;4.38;;;21.70;54.20;;;;;;5053570;28;20492;-53
2023/06/07 00:48:19;;;;;;;11.07;4.00;;;21.80;54.00;;;;;;5054156;28;20082;-51
2023/06/07 00:50:45;;;;;;;12.38;4.38;;;21.80;54.00;;;;;;5052716;28;20021;-53
2023/06/07 00:53:12;;;;;;;8.90;3.70;;;21.70;54.30;;;;;;5053136;28;20493;-53
2023/06/07 00:55:38;;;;;;;8.50;4.00;;;21.70;54.00;;;;;;5050686;28;20051;-52
2023/06/07 00:58:05;;;;;;;10.95;4.32;;;21.70;54.00;;;;;;5040865;28;20051;-54
2023/06/07 01:00:32;;;;;;;11.65;4.30;;;21.70;54.20;;;;;;5035089;28;20032;-49
2023/06/07 01:02:58;;;;;;;11.48;4.43;;;21.70;54.20;;;;;;5053305;28;20059;-52
2023/06/07 01:05:24;;;;;;;10.55;3.92;;;21.80;54.00;;;;;;5034212;28;20017;-55
2023/06/07 01:07:54;;;;;;;11.65;3.72;;;21.80;54.20;;;;;;5052954;28;20029;-50
2023/06/07 01:10:20;;;;;;;12.40;4.40;;;21.70;54.20;;;;;;5053001;28;20021;-51
2023/06/07 01:12:49;;;;;;;11.75;4.10;;;21.80;54.20;;;;;;5053249;28;20107;-54
2023/06/07 01:15:16;;;;;;;8.10;3.83;;;21.70;54.20;;;;;;5034968;28;20031;-52
2023/06/07 01:17:44;;;;;;;13.25;3.88;;;21.70;54.00;;;;;;5053093;28;20035;-49
2023/06/07 01:20:21;;;;;;;11.88;4.43;;;21.80;54.10;;;;;;5050970;28;20365;-53
2023/06/07 01:22:51;;;;;;;6.95;3.50;;;21.70;54.10;;;;;;5047035;28;20459;-53
2023/06/07 01:25:16;;;;;;;;;;;21.70;54.20;;;;;;5034107;28;20025;-55
2023/06/07 01:27:45;;;;;;;8.10;3.60;;;21.70;54.20;;;;;;5052910;28;20004;-49
2023/06/07 01:30:13;;;;;;;10.65;3.53;;;21.70;54.30;;;;;;5047635;28;20043;-55
2023/06/07 01:32:43;;;;;;;8.20;4.10;;;21.70;54.30;;;;;;5034722;28;20029;-54
2023/06/07 01:35:10;;;;;;;11.85;3.85;;;21.70;54.50;;;;;;5051546;28;20032;-54
2023/06/07 01:37:36;;;;;;;8.57;3.95;;;21.80;54.10;;;;;;5044493;28;20476;-52
2023/06/07 01:40:05;;;;;;;11.50;3.78;;;21.80;54.10;;;;;;5052957;28;20021;-52
2023/06/07 01:42:33;;;;;;;10.07;3.70;;;21.80;54.20;;;;;;5043041;28;20116;-57
2023/06/07 01:45:00;;;;;;;8.13;3.70;;;21.80;54.10;;;;;;5035441;28;20033;-53
2023/06/07 01:47:26;;;;;;;6.65;3.33;;;21.80;54.10;;;;;;5034704;28;20028;-57
2023/06/07 01:49:52;;;;;;;6.78;3.47;;;21.80;54.10;;;;;;5035056;28;20221;-51
2023/06/07 01:52:18;;;;;;;11.15;3.65;;;21.80;54.30;;;;;;5034849;28;20092;-52
2023/06/07 01:54:46;;;;;;;4.93;3.15;;;21.80;54.30;;;;;;5034838;28;20028;-54
2023/06/07 01:57:14;;;;;;;5.20;3.22;;;21.80;54.00;;;;;;5050992;28;20028;-53
2023/06/07 01:59:52;;;;;;;5.40;3.00;;;21.80;54.10;;;;;;5029749;28;20497;-55
2023/06/07 02:02:46;;;;;;;7.60;3.50;;;21.80;54.20;;;;;;5052636;28;20059;-57
2023/06/07 02:05:33;;;;;;;7.75;3.70;;;21.80;54.30;;;;;;5034039;28;20557;-53
2023/06/07 02:08:12;;;;;;;8.18;3.45;;;21.80;54.30;;;;;;5030727;28;20033;-50
2023/06/07 02:10:39;;;;;;;9.50;3.60;;;21.80;54.20;;;;;;5052248;28;20044;-48
2023/06/07 02:13:07;;;;;;;14.20;3.50;;;21.80;54.80;;;;;;5052864;28;20062;-55
2023/06/07 02:15:33;;;;;;;13.15;3.53;;;21.80;54.60;;;;;;5033644;28;20032;-54
2023/06/07 02:18:01;;;;;;;9.77;3.20;;;21.80;54.70;;;;;;5033051;28;20567;-55
2023/06/07 02:20:29;;;;;;;6.53;3.45;;;21.80;54.50;;;;;;5052053;28;20499;-56
2023/06/07 02:22:56;;;;;;;9.27;3.67;;;21.80;54.50;;;;;;5051556;28;20020;-56
2023/06/07 02:25:25;;;;;;;9.43;3.35;;;21.80;54.50;;;;;;5051752;28;20032;-56
2023/06/07 02:27:51;;;;;;;6.60;3.40;;;21.80;54.30;;;;;;5050304;28;20033;-56
2023/06/07 02:30:17;;;;;;;9.23;3.30;;;21.80;54.50;;;;;;5052567;28;20155;-56
2023/06/07 02:32:49;;;;;;;6.18;3.30;;;21.80;54.30;;;;;;5034972;28;20056;-53
2023/06/07 02:35:17;;;;;;;6.40;3.47;;;21.80;55.00;;;;;;5032586;28;20036;-53
2023/06/07 02:37:45;;;;;;;9.05;3.88;;;21.80;54.40;;;;;;5052127;28;20037;-54
2023/06/07 02:40:12;;;;;;;9.98;3.40;;;21.80;54.10;;;;;;5038859;28;20071;-52
2023/06/07 02:42:38;;;;;;;6.22;3.35;;;21.80;54.40;;;;;;5034350;28;20493;-57
2023/06/07 02:45:04;;;;;;;13.13;3.55;;;21.80;54.20;;;;;;5051876;28;20021;-55
2023/06/07 02:47:31;;;;;;;6.78;3.20;;;21.80;54.10;;;;;;5051853;28;20656;-52
2023/06/07 02:49:58;;;;;;;12.90;3.28;;;21.80;54.20;;;;;;5034230;28;20094;-52
2023/06/07 02:52:25;;;;;;;6.60;3.05;;;21.80;54.30;;;;;;5033616;28;20025;-56
2023/06/07 02:54:51;;;;;;;6.57;3.25;;;21.80;54.20;;;;;;5033744;28;20039;-49
2023/06/07 02:57:17;;;;;;;7.10;2.92;;;21.80;54.20;;;;;;5034281;28;20025;-52
2023/06/07 02:59:44;;;;;;;10.52;3.40;;;21.80;54.20;;;;;;5052268;28;20037;-56
2023/06/07 03:02:12;;;;;;;9.00;3.00;;;21.80;54.30;;;;;;5034000;28;20059;-50
2023/06/07 03:04:40;;;;;;;5.43;3.28;;;21.80;54.30;;;;;;5033820;28;20029;-49
2023/06/07 03:07:06;;;;;;;5.88;3.10;;;21.80;54.50;;;;;;5033538;28;20048;-49
2023/06/07 03:09:39;;;;;;;7.57;3.35;;;21.80;54.40;;;;;;5034051;28;20430;-50
2023/06/07 03:12:07;;;;;;;11.13;3.20;;;21.80;54.50;;;;;;5033734;28;20029;-54
2023/06/07 03:14:41;;;;;;;7.10;3.65;;;21.80;54.70;;;;;;5033681;28;20495;-53
2023/06/07 03:17:09;;;;;;;6.93;3.20;;;21.80;54.70;;;;;;5034155;28;20391;-56
2023/06/07 03:19:36;;;;;;;8.73;3.33;;;21.80;54.70;;;;;;5033982;28;20399;-58
2023/06/07 03:22:06;;;;;;;9.43;3.20;;;21.80;54.40;;;;;;5033886;28;20070;-58
2023/06/07 03:24:38;;;;;;;12.65;3.60;;;21.80;54.60;;;;;;5033429;28;20021;-57
2023/06/07 03:27:10;;;;;;;9.23;3.03;;;21.80;54.70;;;;;;5033162;28;20021;-57
2023/06/07 03:29:38;;;;;;;10.18;3.38;;;21.80;54.40;;;;;;5033896;28;20032;-55
2023/06/07 03:32:05;;;;;;;12.57;3.20;;;21.80;54.50;;;;;;5033682;28;20029;-56
2023/06/07 03:34:34;;;;;;;8.15;3.60;;;21.80;54.30;;;;;;5033249;28;20021;-56
2023/06/07 03:37:03;;;;;;;13.10;3.70;;;21.80;54.50;;;;;;5033496;28;20036;-54
2023/06/07 03:39:31;;;;;;;11.50;3.17;;;21.90;54.20;;;;;;5051349;28;20117;-57
2023/06/07 03:41:58;;;;;;;11.27;3.25;;;21.80;54.50;;;;;;5033652;28;20040;-57
2023/06/07 03:44:25;;;;;;;8.18;3.25;;;21.80;54.40;;;;;;5033035;28;20040;-57
2023/06/07 03:46:51;;;;;;;6.38;3.03;;;21.80;54.30;;;;;;5033675;28;20026;-58
2023/06/07 03:49:18;;;;;;;7.25;3.50;;;21.90;54.40;;;;;;5033513;28;20021;-55
2023/06/07 03:51:44;;;;;;;7.97;3.38;;;21.80;54.30;;;;;;5033405;28;20413;-55
2023/06/07 03:54:10;;;;;;;9.45;3.53;;;21.80;54.30;;;;;;5033228;28;20029;-58
2023/06/07 03:56:37;;;;;;;7.97;3.20;;;21.80;54.60;;;;;;5051296;28;20028;-58
2023/06/07 03:59:04;;;;;;;7.45;3.72;;;21.80;54.40;;;;;;5051222;28;20539;-57
2023/06/07 04:01:32;;;;;;;7.35;3.30;;;21.80;54.30;;;;;;5033228;28;20021;-58
2023/06/07 04:04:00;;;;;;;7.57;2.95;;;21.80;54.50;;;;;;5033023;28;20102;-55
2023/06/07 04:06:26;;;;;;;9.98;3.53;;;21.80;54.30;;;;;;5036723;28;20029;-56
2023/06/07 04:08:52;;;;;;;7.93;2.92;;;21.80;54.60;;;;;;5037316;28;20032;-57
2023/06/07 04:11:19;;;;;;;7.65;3.72;;;21.80;54.30;;;;;;5053883;28;20492;-56
2023/06/07 04:13:45;;;;;;;6.50;3.05;;;21.80;54.40;;;;;;5036999;28;20407;-58
2023/06/07 04:16:11;;;;;;;6.30;2.97;;;21.80;54.30;;;;;;5035393;28;20109;-57
2023/06/07 04:18:38;;;;;;;7.85;3.30;;;21.80;54.30;;;;;;5037102;28;20053;-56
2023/06/07 04:21:05;;;;;;;5.38;3.03;;;21.80;54.30;;;;;;5054029;28;20083;-55
2023/06/07 04:23:32;;;;;;;12.82;3.28;;;21.80;54.50;;;;;;5036322;28;20028;-55
2023/06/07 04:25:59;;;;;;;8.88;3.25;;;21.80;54.60;;;;;;5054740;28;20036;-56
2023/06/07 04:28:27;;;;;;;6.57;3.13;;;21.80;54.60;;;;;;5035669;28;20526;-57
2023/06/07 04:30:57;;;;;;;8.98;3.65;;;21.80;54.50;;;;;;5033772;28;20041;-56
2023/06/07 04:33:24;;;;;;;6.97;3.30;;;21.80;54.20;;;;;;5036069;28;20044;-53
2023/06/07 04:35:50;;;;;;;6.55;3.15;;;21.80;54.30;;;;;;5037115;28;20029;-55
2023/06/07 04:38:21;;;;;;;5.18;2.80;;;21.80;54.30;;;;;;5034935;28;20033;-55
2023/06/07 04:40:52;;;;;;;5.97;3.15;;;21.80;54.30;;;;;;5029554;28;20025;-57
2023/06/07 04:43:28;;;;;;;5.32;2.83;;;21.80;54.40;;;;;;5043537;28;20037;-55
2023/06/07 04:45:54;;;;;;;9.05;2.92;;;21.80;54.20;;;;;;5036611;28;20048;-55
2023/06/07 04:48:28;;;;;;;6.65;3.10;;;21.80;54.50;;;;;;5038228;28;20033;-58
2023/06/07 04:51:05;;;;;;;6.13;2.97;;;21.80;54.40;;;;;;5035765;28;20098;-57
2023/06/07 04:53:37;;;;;;;7.53;3.08;;;21.80;54.50;;;;;;5029531;28;20099;-55
2023/06/07 04:56:05;;;;;;;9.27;3.17;;;21.80;54.50;;;;;;5029301;28;20043;-52
2023/06/07 04:58:31;;;;;;;6.47;3.13;;;21.80;54.70;;;;;;5036299;28;20067;-57
2023/06/07 05:01:01;;;;;;;8.82;3.10;;;21.80;54.70;;;;;;5035785;28;20033;-56
2023/06/07 05:03:27;;;;;;;6.38;3.05;;;21.90;54.50;;;;;;5035683;28;20029;-50
2023/06/07 05:05:55;;;;;;;6.15;3.10;;;21.90;54.70;;;;;;5032295;28;20033;-56
2023/06/07 05:08:23;;;;;;;7.93;3.08;;;21.90;54.10;;;;;;5017640;28;20060;-57
2023/06/07 05:10:49;;;;;;;7.00;3.20;;;21.90;54.40;;;;;;5052160;28;20525;-55
2023/06/07 05:13:15;;;;;;;9.38;3.63;;;21.80;54.20;;;;;;5053565;28;20687;-52
2023/06/07 05:15:44;;;;;;;7.72;2.80;;;21.90;54.50;;;;;;5053288;28;20031;-54
2023/06/07 05:18:12;;;;;;;7.95;2.95;;;21.90;54.30;;;;;;5035797;28;20599;-54
2023/06/07 05:20:38;;;;;;;7.93;2.90;;;21.90;54.30;;;;;;5021726;28;20071;-56
2023/06/07 05:23:03;;;;;;;8.05;3.30;;;21.80;54.20;;;;;;5021610;28;20037;-54
2023/06/07 05:25:33;;;;;;;8.18;2.92;;;21.90;54.60;;;;;;5037093;28;20035;-51
2023/06/07 05:28:00;;;;;;;6.10;3.10;;;21.90;54.30;;;;;;5050786;28;20064;-52
2023/06/07 05:30:27;;;;;;;6.45;2.70;;;21.90;54.50;;;;;;5035540;28;20057;-48
2023/06/07 05:32:53;;;;;;;6.90;2.97;;;21.90;54.40;;;;;;5051647;28;20033;-51
2023/06/07 05:35:19;;;;;;;5.40;2.83;;;21.90;54.30;;;;;;5052723;28;20510;-52
2023/06/07 05:37:48;;;;;;;7.47;3.00;;;21.90;54.40;;;;;;5018877;28;20065;-50
2023/06/07 05:40:17;;;;;;;6.03;3.20;;;21.90;54.30;;;;;;5035917;28;20585;-49
2023/06/07 05:42:49;;;;;;;6.90;2.78;;;21.90;54.30;;;;;;5035185;28;20036;-49
2023/06/07 05:45:17;;;;;;;6.05;2.75;;;21.90;54.50;;;;;;5034180;28;20036;-53
2023/06/07 05:47:44;;;;;;;6.10;2.90;;;21.90;54.20;;;;;;5018250;28;20416;-50
2023/06/07 05:50:11;;;;;;;6.45;2.80;;;21.90;54.30;;;;;;5033499;28;20060;-49
2023/06/07 05:52:40;;;;;;;11.30;3.10;;;21.90;54.10;;;;;;5041682;28;20556;-54
2023/06/07 05:55:07;;;;;;;7.38;2.83;;;21.90;54.40;;;;;;5063495;28;20028;-54
2023/06/07 05:57:34;;;;;;;5.20;2.97;;;21.90;54.70;;;;;;5053277;28;20016;-51
2023/06/07 05:59:59;;;;;;;7.03;3.10;;;21.90;54.20;;;;;;5052887;28;20028;-56
2023/06/07 06:02:29;;;;;;;6.43;2.88;;;21.90;54.10;;;;;;5053098;28;20408;-56
2023/06/07 06:04:57;;;;;;;10.32;3.13;;;21.90;54.50;;;;;;5052694;28;20412;-56
2023/06/07 06:07:22;;;;;;;8.93;3.20;;;21.90;54.80;;;;;;5051827;28;20564;-54
2023/06/07 06:09:48;;;;;;;11.32;3.10;;;21.90;54.80;;;;;;5052728;28;20104;-56
2023/06/07 06:12:14;;;;;;;7.78;3.10;;;21.90;54.90;;;;;;5052781;28;20025;-54
2023/06/07 06:14:40;;;;;;;7.70;3.00;;;21.90;54.70;;;;;;5052325;28;20029;-49
2023/06/07 06:17:06;;;;;;;6.75;2.97;;;21.90;54.80;;;;;;5052386;28;20040;-54
2023/06/07 06:19:32;;;;;;;9.07;3.33;;;21.90;54.70;;;;;;5052439;28;20028;-56
2023/06/07 06:21:57;;;;;;;10.27;3.33;;;21.90;54.80;;;;;;5052601;28;20052;-53
2023/06/07 06:24:23;;;;;;;11.23;2.90;;;21.90;54.70;;;;;;5052177;28;20041;-51
2023/06/07 06:26:50;;;;;;;11.00;3.30;;;21.90;54.80;;;;;;5017811;28;20021;-55
2023/06/07 06:29:16;;;;;;;28.55;4.30;;;21.90;55.00;;;;;;5051710;28;20020;-55
2023/06/07 06:31:43;;;;;;;18.73;4.07;;;21.90;57.30;;;;;;5052446;28;20025;-52
2023/06/07 06:34:10;;;;;;;19.05;4.57;;;21.90;57.30;;;;;;5051876;28;20035;-56
2023/06/07 06:36:36;;;;;;;17.40;4.13;;;21.90;57.80;;;;;;5052257;28;20411;-51
2023/06/07 06:39:03;;;;;;;13.55;3.63;;;21.80;57.30;;;;;;5052224;28;20028;-52
2023/06/07 06:41:30;;;;;;;10.18;3.30;;;21.90;56.70;;;;;;5052085;28;20060;-51
2023/06/07 06:43:57;;;;;;;12.98;3.45;;;21.90;56.00;;;;;;5050489;28;20112;-53
2023/06/07 06:46:23;;;;;;;10.55;3.40;;;21.90;55.70;;;;;;5034310;28;20035;-49
2023/06/07 06:48:48;;;;;;;10.75;3.33;;;21.90;55.70;;;;;;5052107;28;20415;-50
2023/06/07 06:51:15;;;;;;;23.52;3.83;;;21.90;56.00;;;;;;5052186;28;20552;-52
2023/06/07 06:53:41;;;;;;;21.85;4.13;;;22.00;57.00;;;;;;5049406;28;20358;-53
2023/06/07 06:56:07;;;;;;;23.52;3.75;;;22.00;57.30;;;;;;5049506;28;20307;-52
2023/06/07 06:58:34;;;;;;;12.63;3.60;;;22.00;57.60;;;;;;5051234;28;20094;-55
2023/06/07 07:01:02;;;;;;;13.68;4.38;;;22.00;55.80;;;;;;5053298;28;20112;-51
2023/06/07 07:03:28;;;;;;;17.10;3.80;;;22.00;59.00;;;;;;5050565;28;20519;-50
2023/06/07 07:05:54;;;;;;;8.30;3.67;;;22.00;52.70;;;;;;5051988;28;20388;-51
2023/06/07 07:08:20;;;;;;;8.98;3.95;;;21.90;48.30;;;;;;5051645;28;20033;-51
2023/06/07 07:10:47;;;;;;;13.02;4.28;;;21.60;45.60;;;;;;5051858;28;20025;-54
2023/06/07 07:13:14;;;;;;;13.80;4.53;;;21.70;49.30;;;;;;5040552;28;20408;-48
2023/06/07 07:15:40;;;;;;;10.85;3.63;;;21.80;49.90;;;;;;5044139;28;20024;-52
2023/06/07 07:18:07;;;;;;;13.40;3.90;;;21.90;50.70;;;;;;5046842;28;20029;-55
2023/06/07 07:20:34;;;;;;;11.80;3.42;;;21.90;50.50;;;;;;5047402;28;20029;-52
2023/06/07 07:23:01;;;;;;;9.65;3.53;;;21.90;50.60;;;;;;5047313;28;20385;-51
2023/06/07 07:25:27;;;;;;;15.27;3.72;;;22.00;51.00;;;;;;5029255;28;20592;-54
2023/06/07 07:27:53;;;;;;;12.13;3.17;;;22.00;51.70;;;;;;5047525;28;20326;-53
2023/06/07 07:30:19;;;;;;;11.88;3.80;;;22.00;51.20;;;;;;5047578;28;20025;-53
2023/06/07 07:32:45;;;;;;;6.85;3.13;;;22.00;51.10;;;;;;5047016;28;20543;-54
2023/06/07 07:35:11;;;;;;;10.65;3.50;;;22.00;50.30;;;;;;5046774;28;20017;-54
2023/06/07 07:37:39;;;;;;;6.22;3.40;;;22.00;49.90;;;;;;5047474;28;20043;-52
2023/06/07 07:40:08;;;;;;;8.68;3.22;;;22.10;51.20;;;;;;5048036;28;20182;-55
2023/06/07 07:42:35;;;;;;;13.73;3.47;;;22.00;51.10;;;;;;5048592;28;20060;-55
2023/06/07 07:45:01;;;;;;;10.40;3.55;;;22.10;50.50;;;;;;5048367;28;20112;-52
2023/06/07 07:47:27;;;;;;;13.77;3.15;;;22.10;50.50;;;;;;5038716;28;20124;-51
2023/06/07 07:49:53;;;;;;;9.13;3.65;;;22.10;50.90;;;;;;5048792;28;20104;-55
2023/06/07 07:52:20;;;;;;;10.07;3.30;;;22.10;49.90;;;;;;5048452;28;20025;-55
2023/06/07 07:54:48;;;;;;;9.18;3.58;;;22.10;49.80;;;;;;5047823;28;20029;-54
2023/06/07 07:57:13;;;;;;;7.78;3.50;;;22.10;49.20;;;;;;5048183;28;20036;-50
2023/06/07 07:59:39;;;;;;;8.80;3.92;;;22.20;49.50;;;;;;5047479;28;20032;-53
2023/06/07 08:02:05;;;;;;;11.63;3.70;;;22.20;48.90;;;;;;5047208;28;20029;-56
2023/06/07 08:04:31;;;;;;;10.98;3.67;;;22.20;48.80;;;;;;5041493;28;20124;-51
2023/06/07 08:06:57;;;;;;;8.70;3.88;;;22.20;48.60;;;;;;5039317;28;20572;-49
2023/06/07 08:09:23;;;;;;;9.13;3.42;;;22.20;48.70;;;;;;5043262;28;20107;-51
2023/06/07 08:11:49;;;;;;;6.75;3.50;;;22.20;48.10;;;;;;5047821;28;20492;-54
2023/06/07 08:14:15;;;;;;;11.27;3.50;;;22.20;48.00;;;;;;5054305;28;20044;-56
2023/06/07 08:16:41;;;;;;;10.52;4.07;;;22.20;48.10;;;;;;5049281;28;20119;-53
2023/06/07 08:19:07;;;;;;;9.27;3.95;;;22.20;47.70;;;;;;5045927;28;20121;-56
2023/06/07 08:21:33;;;;;;;10.48;3.97;;;22.20;47.50;;;;;;5045589;28;20045;-55
2023/06/07 08:23:59;;;;;;;7.93;3.65;;;22.20;47.30;;;;;;5046079;28;20029;-54
2023/06/07 08:26:25;;;;;;;12.68;3.83;;;22.30;47.70;;;;;;5046526;28;20027;-54
2023/06/07 08:28:51;;;;;;;13.55;3.85;;;22.30;47.80;;;;;;5028419;28;20033;-54
2023/06/07 08:31:22;;;;;;;10.07;4.13;;;22.30;47.70;;;;;;5045843;28;20017;-57
2023/06/07 08:33:49;;;;;;;6.30;3.80;;;22.30;48.20;;;;;;5028363;28;20422;-56
2023/06/07 08:36:15;;;;;;;10.35;3.75;;;22.30;47.50;;;;;;5040600;28;20450;-56
2023/06/07 08:38:41;;;;;;;9.45;3.58;;;22.30;47.80;;;;;;5043011;28;20029;-55
2023/06/07 08:41:07;;;;;;;8.48;3.47;;;22.30;47.60;;;;;;5040959;28;20120;-56
2023/06/07 08:43:36;;;;;;;12.52;3.33;;;22.30;47.60;;;;;;5044054;28;20059;-55
2023/06/07 08:46:05;;;;;;;11.40;3.75;;;22.30;47.80;;;;;;5045580;28;20025;-56
2023/06/07 08:48:35;;;;;;;23.95;3.83;;;22.40;47.30;;;;;;5045039;28;20037;-54
2023/06/07 08:51:01;;;;;;;;;;;22.40;47.90;;;;;;5046910;28;20017;-56
2023/06/07 08:53:37;;;;;;;10.88;3.25;;;22.40;47.10;;;;;;5056721;28;19909;-57
2023/06/07 08:56:03;;;;;;;12.77;3.75;;;22.40;47.30;;;;;;5049106;28;20025;-58
2023/06/07 08:58:31;;;;;;;18.48;3.78;;;22.40;47.40;;;;;;5047669;28;20484;-49
2023/06/07 09:00:59;;;;;;;15.63;3.67;;;22.30;47.10;;;;;;5049174;28;20064;-49
2023/06/07 09:03:26;;;;;;;18.23;3.92;;;22.30;48.40;;;;;;5049638;28;20082;-49
2023/06/07 09:05:55;;;;;;;10.50;3.50;;;22.30;48.10;;;;;;5049123;28;20052;-49
2023/06/07 09:08:21;;;;;;;15.95;3.58;;;22.30;47.90;;;;;;5048493;28;20063;-52
2023/06/07 09:10:47;;;;;;;10.15;3.35;;;22.40;47.90;;;;;;5048414;28;20048;-50
2023/06/07 09:13:21;;;;;;;12.15;3.63;;;22.40;48.50;;;;;;5049160;28;20091;-51
2023/06/07 09:15:52;;;;;;;9.95;3.65;;;22.30;48.50;;;;;;5049584;28;20105;-51
2023/06/07 09:18:18;;;;;;;20.27;3.65;;;22.40;48.50;;;;;;5030839;28;20029;-51
2023/06/07 09:20:44;;;;;;;12.38;3.58;;;22.40;48.50;;;;;;5049053;28;20100;-47
2023/06/07 09:23:14;;;;;;;8.77;3.35;;;22.40;48.60;;;;;;5049142;28;20499;-53
2023/06/07 09:25:45;;;;;;;13.63;3.35;;;22.40;48.90;;;;;;5049003;28;20021;-52
2023/06/07 09:28:14;;;;;;;10.80;3.22;;;22.30;48.90;;;;;;5049391;28;20029;-54
2023/06/07 09:30:55;;;;;;;9.88;3.30;;;22.30;49.50;;;;;;5045475;28;20464;-54
2023/06/07 09:33:33;;;;;;;10.45;3.28;;;22.30;49.40;;;;;;5048913;28;20516;-48
2023/06/07 09:36:07;;;;;;;8.35;3.33;;;22.30;49.50;;;;;;5048787;28;20326;-53
2023/06/07 09:38:34;;;;;;;6.75;3.10;;;22.30;49.70;;;;;;5048560;28;20583;-54
2023/06/07 09:41:00;;;;;;;9.85;3.50;;;22.30;49.80;;;;;;5030871;28;20450;-56
2023/06/07 09:43:26;;;;;;;7.18;3.35;;;22.30;49.80;;;;;;5048642;28;20036;-54
2023/06/07 09:45:56;;;;;;;12.00;3.75;;;22.30;49.90;;;;;;5048811;28;20025;-52
2023/06/07 09:48:22;;;;;;;7.28;3.05;;;22.30;50.00;;;;;;5048306;28;20037;-53
2023/06/07 09:50:58;;;;;;;11.32;3.33;;;22.30;50.50;;;;;;5048334;28;20021;-55
2023/06/07 09:53:27;;;;;;;4.95;2.70;;;22.30;50.10;;;;;;5047962;28;20025;-52
2023/06/07 09:55:53;;;;;;;5.80;3.20;;;22.30;50.10;;;;;;5048211;28;20108;-53
2023/06/07 09:58:20;;;;;;;7.38;3.03;;;22.30;50.20;;;;;;5049626;28;20555;-55
2023/06/07 10:00:47;;;;;;;8.13;3.30;;;22.30;50.30;;;;;;5031619;28;20021;-53
2023/06/07 10:03:13;;;;;;;10.07;2.97;;;22.30;50.40;;;;;;5048356;28;20037;-52
2023/06/07 10:05:41;;;;;;;8.65;3.33;;;22.30;50.40;;;;;;5047986;28;20082;-51
2023/06/07 10:08:08;;;;;;;6.53;3.05;;;22.30;50.40;;;;;;5048351;28;20484;-49
2023/06/07 10:10:35;;;;;;;8.70;3.55;;;22.30;50.40;;;;;;5048761;28;20099;-53
2023/06/07 10:13:05;;;;;;;7.95;3.00;;;22.30;50.60;;;;;;5043974;28;20428;-50
2023/06/07 10:15:32;;;;;;;6.05;2.58;;;22.30;50.60;;;;;;5047539;28;20464;-54
2023/06/07 10:18:03;;;;;;;8.93;3.10;;;22.30;50.60;;;;;;5047712;28;20513;-50
2023/06/07 10:20:35;;;;;;;8.68;2.60;;;22.30;51.20;;;;;;5047008;28;20052;-54
2023/06/07 10:23:07;;;;;;;8.68;2.90;;;22.30;52.40;;;;;;5042949;28;20024;-50
2023/06/07 10:25:52;;;;;;;5.40;2.70;;;22.30;51.60;;;;;;5046582;28;20021;-52
2023/06/07 10:28:25;;;;;;;7.13;2.80;;;22.30;51.10;;;;;;5044688;28;20021;-51
2023/06/07 10:31:04;;;;;;;7.03;3.25;;;22.40;51.40;;;;;;5047810;28;20079;-50
2023/06/07 10:33:31;;;;;;;8.45;3.25;;;22.40;52.30;;;;;;5045545;28;20025;-55
2023/06/07 10:35:58;;;;;;;9.02;3.28;;;22.40;51.60;;;;;;5050235;28;20067;-51
2023/06/07 10:38:24;;;;;;;11.15;3.40;;;22.40;51.80;;;;;;5048507;28;20128;-46
2023/06/07 10:40:51;;;;;;;9.52;3.40;;;22.40;51.80;;;;;;5047941;28;20112;-50
2023/06/07 10:43:19;;;;;;;9.45;2.83;;;22.40;51.90;;;;;;5046091;28;20029;-50
2023/06/07 10:45:45;;;;;;;14.98;3.47;;;22.40;51.90;;;;;;5046676;28;20079;-48
2023/06/07 10:48:34;;;;;;;10.75;3.22;;;22.40;52.10;;;;;;5046962;28;20028;-50
2023/06/07 10:51:00;;;;;;;7.68;2.80;;;22.40;52.20;;;;;;5042736;28;20124;-48
2023/06/07 10:53:48;;;;;;;11.35;3.72;;;22.40;52.00;;;;;;5046249;28;20120;-50
2023/06/07 10:56:30;;;;;;;6.68;3.17;;;22.40;52.70;;;;;;5046997;28;20530;-50
2023/06/07 10:59:20;;;;;;;7.70;3.50;;;22.40;52.20;;;;;;5046620;28;20036;-49
2023/06/07 11:01:46;;;;;;;;;;;22.40;52.30;;;;;;5031403;28;20403;-50
2023/06/07 11:04:48;;;;;;;11.50;3.22;;;22.40;52.40;;;;;;5046747;28;19917;-48
2023/06/07 11:07:25;;;;;;;9.85;3.05;;;22.40;52.80;;;;;;5046711;28;20274;-49
2023/06/07 11:10:03;;;;;;;9.45;3.10;;;22.40;52.60;;;;;;5047304;28;20035;-48
2023/06/07 11:12:40;;;;;;;7.13;2.85;;;22.40;52.60;;;;;;5046722;28;20472;-51
2023/06/07 11:15:20;;;;;;;9.52;2.72;;;22.40;52.60;;;;;;5046901;28;20037;-48
2023/06/07 11:17:51;;;;;;;7.53;2.87;;;22.40;52.70;;;;;;5040922;28;20033;-50
2023/06/07 11:20:35;;;;;;;10.60;2.80;;;22.30;52.60;;;;;;5046624;28;20028;-50
2023/06/07 11:23:30;;;;;;;9.60;3.30;;;22.30;52.70;;;;;;5047091;28;20269;-50
2023/06/07 11:26:11;;;;;;;11.00;3.17;;;22.40;52.80;;;;;;5041726;28;20021;-50
2023/06/07 11:28:41;;;;;;;12.88;3.13;;;22.30;53.00;;;;;;5038388;28;20073;-48
2023/06/07 11:31:11;;;;;;;8.85;3.00;;;22.40;52.80;;;;;;5046453;28;20032;-48
2023/06/07 11:33:37;;;;;;;12.23;3.20;;;22.30;52.80;;;;;;5020894;28;20040;-51
2023/06/07 11:36:09;;;;;;;10.35;3.03;;;22.30;52.80;;;;;;5047269;28;20058;-50
2023/06/07 11:38:35;;;;;;;7.13;2.92;;;22.30;52.70;;;;;;5047084;28;20021;-50
2023/06/07 11:41:03;;;;;;;11.27;3.17;;;22.40;52.60;;;;;;5046769;28;20032;-50
2023/06/07 11:43:31;;;;;;;12.00;2.90;;;22.30;52.70;;;;;;5046106;28;20097;-48
2023/06/07 11:45:58;;;;;;;4.50;2.67;;;22.30;52.70;;;;;;5046519;28;20032;-48
2023/06/07 11:48:27;;;;;;;10.70;3.28;;;22.30;52.70;;;;;;5046436;28;20535;-52
2023/06/07 11:50:53;;;;;;;15.95;2.90;;;22.30;52.60;;;;;;5047156;28;20564;-49
2023/06/07 11:53:20;;;;;;;9.20;2.92;;;22.30;52.70;;;;;;5046345;28;20156;-48
2023/06/07 11:55:46;;;;;;;7.55;2.92;;;22.30;52.70;;;;;;5046266;28;20021;-52
2023/06/07 11:58:12;;;;;;;7.95;2.88;;;22.30;52.60;;;;;;5045931;28;20039;-53
2023/06/07 12:00:41;;;;;;;7.97;2.88;;;22.30;52.70;;;;;;5046388;28;20017;-54
2023/06/07 12:03:10;;;;;;;6.93;2.70;;;22.40;52.80;;;;;;5046906;28;20075;-53
2023/06/07 12:05:37;;;;;;;12.63;3.13;;;22.40;52.80;;;;;;5045786;28;20016;-49
2023/06/07 12:08:22;;;;;;;5.55;2.67;;;22.40;52.90;;;;;;5045907;28;20114;-50
2023/06/07 12:10:52;;;;;;;4.68;2.47;;;22.40;53.00;;;;;;5038416;28;20431;-50
2023/06/07 12:13:20;;;;;;;5.80;2.60;;;22.40;53.00;;;;;;5045663;28;20040;-51
2023/06/07 12:15:53;;;;;;;5.63;2.78;;;22.40;53.00;;;;;;5045490;28;20116;-50
2023/06/07 12:18:24;;;;;;;10.30;2.88;;;22.30;52.90;;;;;;5046113;28;20072;-52
2023/06/07 12:21:04;;;;;;;6.03;2.60;;;22.40;52.90;;;;;;5046766;28;20025;-50
2023/06/07 12:23:31;;;;;;;9.35;3.08;;;22.40;53.10;;;;;;5046001;28;20037;-52
2023/06/07 12:26:19;;;;;;;7.72;2.60;;;22.30;52.90;;;;;;5047538;28;20033;-53
2023/06/07 12:28:47;;;;;;;8.95;3.00;;;22.30;53.00;;;;;;5043031;28;20025;-50
2023/06/07 12:31:23;;;;;;;5.90;2.78;;;22.40;53.10;;;;;;5049839;28;20029;-51
2023/06/07 12:33:54;;;;;;;5.22;2.95;;;22.30;52.80;;;;;;5049538;28;20032;-51
2023/06/07 12:36:20;;;;;;;7.15;3.03;;;22.30;53.10;;;;;;5049803;28;20032;-52
2023/06/07 12:38:47;;;;;;;4.88;2.55;;;22.30;53.00;;;;;;5050785;28;20029;-53
2023/06/07 12:41:13;;;;;;;4.88;2.55;;;22.30;52.90;;;;;;5049539;28;20127;-51
2023/06/07 12:43:49;;;;;;;6.97;2.70;;;22.30;52.80;;;;;;5037937;28;20017;-52
2023/06/07 12:46:15;;;;;;;24.90;3.00;;;22.30;53.20;;;;;;5054703;28;20029;-50
2023/06/07 12:48:41;;;;;;;5.47;2.90;;;22.30;53.40;;;;;;5056359;28;20066;-50
2023/06/07 12:51:08;;;;;;;6.28;2.80;;;22.40;53.10;;;;;;5056657;28;20151;-47